sensor_id;sensor_type;location;lat;lon;timestamp;P1;durP1;ratioP1;P2;durP2;ratioP2
11151;SDS011;5630;49.342;10.802;2022-11-11T00:01:24;11.73;;;6.23;;
11151;SDS011;5630;49.342;10.802;2022-11-11T00:03:53;8.63;;;5.57;;
11151;SDS011;5630;49.342;10.802;2022-11-11T00:06:20;15.40;;;5.83;;
11151;SDS011;5630;49.342;10.802;2022-11-11T00:08:46;8.83;;;5.37;;
11151;SDS011;5630;49.342;10.802;2022-11-11T00:11:12;11.57;;;5.70;;
11151;SDS011;5630;49.342;10.802;2022-11-11T00:13:39;6.93;;;5.57;;
11151;SDS011;5630;49.342;10.802;2022-11-11T00:16:06;8.43;;;4.97;;
11151;SDS011;5630;49.342;10.802;2022-11-11T00:18:34;9.60;;;4.97;;
11151;SDS011;5630;49.342;10.802;2022-11-11T00:21:18;7.07;;;5.40;;
11151;SDS011;5630;49.342;10.802;2022-11-11T00:24:07;6.43;;;4.90;;
11151;SDS011;5630;49.342;10.802;2022-11-11T00:27:16;6.47;;;5.10;;
11151;SDS011;5630;49.342;10.802;2022-11-11T00:29:45;8.93;;;5.30;;
11151;SDS011;5630;49.342;10.802;2022-11-11T00:32:10;8.97;;;4.50;;
11151;SDS011;5630;49.342;10.802;2022-11-11T00:34:49;8.33;;;4.90;;
11151;SDS011;5630;49.342;10.802;2022-11-11T00:37:33;8.33;;;4.90;;
11151;SDS011;5630;49.342;10.802;2022-11-11T00:39:59;7.17;;;4.50;;
11151;SDS011;5630;49.342;10.802;2022-11-11T00:42:25;7.07;;;4.70;;
11151;SDS011;5630;49.342;10.802;2022-11-11T00:44:51;4.70;;;4.13;;
11151;SDS011;5630;49.342;10.802;2022-11-11T00:47:17;7.20;;;4.70;;
11151;SDS011;5630;49.342;10.802;2022-11-11T00:50:05;8.60;;;4.73;;
11151;SDS011;5630;49.342;10.802;2022-11-11T00:52:53;6.00;;;4.70;;
11151;SDS011;5630;49.342;10.802;2022-11-11T00:55:19;8.30;;;4.70;;
11151;SDS011;5630;49.342;10.802;2022-11-11T00:57:45;7.83;;;5.10;;
11151;SDS011;5630;49.342;10.802;2022-11-11T01:00:10;9.30;;;4.70;;
11151;SDS011;5630;49.342;10.802;2022-11-11T01:02:37;6.63;;;4.87;;
11151;SDS011;5630;49.342;10.802;2022-11-11T01:05:02;8.03;;;5.07;;
11151;SDS011;5630;49.342;10.802;2022-11-11T01:07:28;7.03;;;4.43;;
11151;SDS011;5630;49.342;10.802;2022-11-11T01:09:54;6.40;;;4.60;;
11151;SDS011;5630;49.342;10.802;2022-11-11T01:12:19;7.13;;;5.10;;
11151;SDS011;5630;49.342;10.802;2022-11-11T01:14:45;6.07;;;4.83;;
11151;SDS011;5630;49.342;10.802;2022-11-11T01:17:10;7.67;;;5.00;;
11151;SDS011;5630;49.342;10.802;2022-11-11T01:19:36;8.53;;;4.87;;
11151;SDS011;5630;49.342;10.802;2022-11-11T01:22:02;10.00;;;5.50;;
11151;SDS011;5630;49.342;10.802;2022-11-11T01:24:27;8.87;;;5.77;;
11151;SDS011;5630;49.342;10.802;2022-11-11T01:26:53;10.13;;;5.47;;
11151;SDS011;5630;49.342;10.802;2022-11-11T01:29:18;9.67;;;5.30;;
11151;SDS011;5630;49.342;10.802;2022-11-11T01:31:44;9.93;;;4.90;;
11151;SDS011;5630;49.342;10.802;2022-11-11T01:34:10;6.77;;;4.93;;
11151;SDS011;5630;49.342;10.802;2022-11-11T01:36:35;9.17;;;5.40;;
11151;SDS011;5630;49.342;10.802;2022-11-11T01:39:01;7.90;;;5.00;;
11151;SDS011;5630;49.342;10.802;2022-11-11T01:41:31;7.10;;;4.90;;
11151;SDS011;5630;49.342;10.802;2022-11-11T01:43:59;5.40;;;4.90;;
11151;SDS011;5630;49.342;10.802;2022-11-11T01:49:14;6.67;;;4.77;;
11151;SDS011;5630;49.342;10.802;2022-11-11T01:52:43;6.67;;;4.90;;
11151;SDS011;5630;49.342;10.802;2022-11-11T02:00:15;6.50;;;4.73;;
11151;SDS011;5630;49.342;10.802;2022-11-11T02:02:43;8.03;;;4.80;;
11151;SDS011;5630;49.342;10.802;2022-11-11T02:05:10;6.03;;;4.43;;
11151;SDS011;5630;49.342;10.802;2022-11-11T02:07:56;7.33;;;4.80;;
11151;SDS011;5630;49.342;10.802;2022-11-11T02:10:25;8.07;;;4.60;;
11151;SDS011;5630;49.342;10.802;2022-11-11T02:12:52;9.33;;;4.70;;
11151;SDS011;5630;49.342;10.802;2022-11-11T02:15:36;6.90;;;4.87;;
11151;SDS011;5630;49.342;10.802;2022-11-11T02:18:02;6.43;;;4.60;;
11151;SDS011;5630;49.342;10.802;2022-11-11T02:20:29;7.67;;;4.83;;
11151;SDS011;5630;49.342;10.802;2022-11-11T02:23:01;8.00;;;4.37;;
11151;SDS011;5630;49.342;10.802;2022-11-11T02:25:28;6.70;;;4.43;;
11151;SDS011;5630;49.342;10.802;2022-11-11T02:27:57;8.53;;;4.63;;
11151;SDS011;5630;49.342;10.802;2022-11-11T02:30:28;7.27;;;4.80;;
11151;SDS011;5630;49.342;10.802;2022-11-11T02:32:53;8.93;;;4.60;;
11151;SDS011;5630;49.342;10.802;2022-11-11T02:35:21;7.47;;;4.57;;
11151;SDS011;5630;49.342;10.802;2022-11-11T02:37:54;8.17;;;4.60;;
11151;SDS011;5630;49.342;10.802;2022-11-11T02:40:27;6.03;;;4.87;;
11151;SDS011;5630;49.342;10.802;2022-11-11T02:42:57;6.80;;;4.93;;
11151;SDS011;5630;49.342;10.802;2022-11-11T02:45:22;7.63;;;5.27;;
11151;SDS011;5630;49.342;10.802;2022-11-11T02:47:48;8.03;;;5.67;;
11151;SDS011;5630;49.342;10.802;2022-11-11T02:50:14;9.40;;;6.23;;
11151;SDS011;5630;49.342;10.802;2022-11-11T02:52:39;15.43;;;7.27;;
11151;SDS011;5630;49.342;10.802;2022-11-11T02:55:05;16.73;;;7.13;;
11151;SDS011;5630;49.342;10.802;2022-11-11T02:57:31;11.27;;;6.70;;
11151;SDS011;5630;49.342;10.802;2022-11-11T02:59:58;13.53;;;6.77;;
11151;SDS011;5630;49.342;10.802;2022-11-11T03:02:24;10.17;;;6.20;;
11151;SDS011;5630;49.342;10.802;2022-11-11T03:04:52;11.07;;;5.83;;
11151;SDS011;5630;49.342;10.802;2022-11-11T03:07:22;10.57;;;5.97;;
11151;SDS011;5630;49.342;10.802;2022-11-11T03:09:49;9.00;;;5.07;;
11151;SDS011;5630;49.342;10.802;2022-11-11T03:12:15;7.50;;;5.13;;
11151;SDS011;5630;49.342;10.802;2022-11-11T03:14:41;9.53;;;4.70;;
11151;SDS011;5630;49.342;10.802;2022-11-11T03:17:07;9.33;;;5.20;;
11151;SDS011;5630;49.342;10.802;2022-11-11T03:19:52;7.00;;;5.03;;
11151;SDS011;5630;49.342;10.802;2022-11-11T03:22:37;7.63;;;4.60;;
11151;SDS011;5630;49.342;10.802;2022-11-11T03:25:03;6.63;;;4.80;;
11151;SDS011;5630;49.342;10.802;2022-11-11T03:27:48;5.83;;;4.30;;
11151;SDS011;5630;49.342;10.802;2022-11-11T03:30:13;6.03;;;4.43;;
11151;SDS011;5630;49.342;10.802;2022-11-11T03:32:39;8.50;;;4.30;;
11151;SDS011;5630;49.342;10.802;2022-11-11T03:35:04;5.00;;;4.10;;
11151;SDS011;5630;49.342;10.802;2022-11-11T03:37:30;9.23;;;4.30;;
11151;SDS011;5630;49.342;10.802;2022-11-11T03:40:14;7.17;;;4.60;;
11151;SDS011;5630;49.342;10.802;2022-11-11T03:42:39;5.30;;;4.47;;
11151;SDS011;5630;49.342;10.802;2022-11-11T03:45:07;7.00;;;4.17;;
11151;SDS011;5630;49.342;10.802;2022-11-11T03:47:33;6.10;;;4.80;;
11151;SDS011;5630;49.342;10.802;2022-11-11T03:49:58;7.87;;;4.87;;
11151;SDS011;5630;49.342;10.802;2022-11-11T03:52:24;6.90;;;4.70;;
11151;SDS011;5630;49.342;10.802;2022-11-11T03:54:49;7.23;;;4.90;;
11151;SDS011;5630;49.342;10.802;2022-11-11T03:57:15;6.87;;;4.50;;
11151;SDS011;5630;49.342;10.802;2022-11-11T03:59:56;9.13;;;4.50;;
11151;SDS011;5630;49.342;10.802;2022-11-11T04:02:21;7.03;;;4.37;;
11151;SDS011;5630;49.342;10.802;2022-11-11T04:05:05;5.30;;;4.43;;
11151;SDS011;5630;49.342;10.802;2022-11-11T04:07:50;5.60;;;4.00;;
11151;SDS011;5630;49.342;10.802;2022-11-11T04:10:34;5.67;;;4.40;;
11151;SDS011;5630;49.342;10.802;2022-11-11T04:13:00;9.67;;;5.00;;
11151;SDS011;5630;49.342;10.802;2022-11-11T04:15:55;5.33;;;4.70;;
11151;SDS011;5630;49.342;10.802;2022-11-11T04:18:30;6.43;;;4.20;;
11151;SDS011;5630;49.342;10.802;2022-11-11T04:21:14;8.47;;;4.30;;
11151;SDS011;5630;49.342;10.802;2022-11-11T04:23:58;8.23;;;4.17;;
11151;SDS011;5630;49.342;10.802;2022-11-11T04:26:23;5.93;;;4.50;;
11151;SDS011;5630;49.342;10.802;2022-11-11T04:28:49;5.77;;;4.27;;
11151;SDS011;5630;49.342;10.802;2022-11-11T04:31:33;4.97;;;4.07;;
11151;SDS011;5630;49.342;10.802;2022-11-11T04:33:59;7.13;;;4.83;;
11151;SDS011;5630;49.342;10.802;2022-11-11T04:36:24;6.30;;;4.63;;
11151;SDS011;5630;49.342;10.802;2022-11-11T04:38:50;6.30;;;4.93;;
11151;SDS011;5630;49.342;10.802;2022-11-11T04:41:35;7.97;;;5.57;;
11151;SDS011;5630;49.342;10.802;2022-11-11T04:44:01;5.33;;;4.37;;
11151;SDS011;5630;49.342;10.802;2022-11-11T04:46:45;6.03;;;4.30;;
11151;SDS011;5630;49.342;10.802;2022-11-11T04:49:10;6.50;;;5.40;;
11151;SDS011;5630;49.342;10.802;2022-11-11T04:51:36;9.23;;;5.20;;
11151;SDS011;5630;49.342;10.802;2022-11-11T04:54:20;5.83;;;4.50;;
11151;SDS011;5630;49.342;10.802;2022-11-11T04:56:45;6.87;;;4.60;;
11151;SDS011;5630;49.342;10.802;2022-11-11T04:59:18;9.73;;;4.80;;
11151;SDS011;5630;49.342;10.802;2022-11-11T05:01:44;6.90;;;4.67;;
11151;SDS011;5630;49.342;10.802;2022-11-11T05:04:28;7.43;;;4.80;;
11151;SDS011;5630;49.342;10.802;2022-11-11T05:06:54;7.57;;;5.57;;
11151;SDS011;5630;49.342;10.802;2022-11-11T05:09:39;8.43;;;5.40;;
11151;SDS011;5630;49.342;10.802;2022-11-11T05:12:04;6.77;;;5.60;;
11151;SDS011;5630;49.342;10.802;2022-11-11T05:14:30;8.33;;;5.77;;
11151;SDS011;5630;49.342;10.802;2022-11-11T05:17:14;5.80;;;5.20;;
11151;SDS011;5630;49.342;10.802;2022-11-11T05:19:58;6.93;;;5.17;;
11151;SDS011;5630;49.342;10.802;2022-11-11T05:22:42;6.80;;;5.03;;
11151;SDS011;5630;49.342;10.802;2022-11-11T05:25:09;6.13;;;5.03;;
11151;SDS011;5630;49.342;10.802;2022-11-11T05:27:54;6.47;;;5.17;;
11151;SDS011;5630;49.342;10.802;2022-11-11T05:30:23;6.70;;;5.30;;
11151;SDS011;5630;49.342;10.802;2022-11-11T05:32:50;7.43;;;5.13;;
11151;SDS011;5630;49.342;10.802;2022-11-11T05:35:18;7.00;;;5.43;;
11151;SDS011;5630;49.342;10.802;2022-11-11T05:37:43;10.57;;;5.97;;
11151;SDS011;5630;49.342;10.802;2022-11-11T05:40:29;9.53;;;5.60;;
11151;SDS011;5630;49.342;10.802;2022-11-11T05:42:55;9.40;;;5.60;;
11151;SDS011;5630;49.342;10.802;2022-11-11T05:45:20;9.03;;;5.70;;
11151;SDS011;5630;49.342;10.802;2022-11-11T05:47:46;8.57;;;6.13;;
11151;SDS011;5630;49.342;10.802;2022-11-11T05:50:11;10.57;;;6.73;;
11151;SDS011;5630;49.342;10.802;2022-11-11T05:52:37;9.90;;;6.93;;
11151;SDS011;5630;49.342;10.802;2022-11-11T05:55:02;11.23;;;7.00;;
11151;SDS011;5630;49.342;10.802;2022-11-11T05:57:28;8.37;;;6.27;;
11151;SDS011;5630;49.342;10.802;2022-11-11T05:59:54;8.90;;;6.70;;
11151;SDS011;5630;49.342;10.802;2022-11-11T06:02:22;8.20;;;6.20;;
11151;SDS011;5630;49.342;10.802;2022-11-11T06:04:48;11.07;;;7.17;;
11151;SDS011;5630;49.342;10.802;2022-11-11T06:07:13;7.70;;;6.23;;
11151;SDS011;5630;49.342;10.802;2022-11-11T06:09:39;10.00;;;7.67;;
11151;SDS011;5630;49.342;10.802;2022-11-11T06:12:04;8.50;;;6.73;;
11151;SDS011;5630;49.342;10.802;2022-11-11T06:14:30;9.57;;;6.47;;
11151;SDS011;5630;49.342;10.802;2022-11-11T06:16:56;9.57;;;6.30;;
11151;SDS011;5630;49.342;10.802;2022-11-11T06:19:21;8.63;;;6.20;;
11151;SDS011;5630;49.342;10.802;2022-11-11T06:21:47;9.60;;;6.57;;
11151;SDS011;5630;49.342;10.802;2022-11-11T06:24:30;8.70;;;6.53;;
11151;SDS011;5630;49.342;10.802;2022-11-11T06:26:56;12.37;;;6.77;;
11151;SDS011;5630;49.342;10.802;2022-11-11T06:29:21;7.87;;;6.90;;
11151;SDS011;5630;49.342;10.802;2022-11-11T06:31:47;12.37;;;6.77;;
11151;SDS011;5630;49.342;10.802;2022-11-11T06:34:13;7.73;;;6.80;;
11151;SDS011;5630;49.342;10.802;2022-11-11T06:36:38;8.60;;;6.93;;
11151;SDS011;5630;49.342;10.802;2022-11-11T06:39:04;9.80;;;6.97;;
11151;SDS011;5630;49.342;10.802;2022-11-11T06:41:29;10.33;;;6.90;;
11151;SDS011;5630;49.342;10.802;2022-11-11T06:43:55;10.57;;;7.80;;
11151;SDS011;5630;49.342;10.802;2022-11-11T06:46:21;10.80;;;8.03;;
11151;SDS011;5630;49.342;10.802;2022-11-11T06:48:48;10.23;;;7.50;;
11151;SDS011;5630;49.342;10.802;2022-11-11T06:51:13;11.07;;;7.00;;
11151;SDS011;5630;49.342;10.802;2022-11-11T06:53:39;8.77;;;6.33;;
11151;SDS011;5630;49.342;10.802;2022-11-11T06:56:06;8.07;;;7.07;;
11151;SDS011;5630;49.342;10.802;2022-11-11T06:58:32;10.43;;;6.63;;
11151;SDS011;5630;49.342;10.802;2022-11-11T07:01:02;8.67;;;6.50;;
11151;SDS011;5630;49.342;10.802;2022-11-11T07:03:32;11.40;;;6.20;;
11151;SDS011;5630;49.342;10.802;2022-11-11T07:06:01;8.57;;;6.40;;
11151;SDS011;5630;49.342;10.802;2022-11-11T07:08:27;7.70;;;5.90;;
11151;SDS011;5630;49.342;10.802;2022-11-11T07:10:53;6.13;;;5.53;;
11151;SDS011;5630;49.342;10.802;2022-11-11T07:13:19;6.60;;;5.40;;
11151;SDS011;5630;49.342;10.802;2022-11-11T07:15:45;8.43;;;5.67;;
11151;SDS011;5630;49.342;10.802;2022-11-11T07:18:11;14.07;;;9.13;;
11151;SDS011;5630;49.342;10.802;2022-11-11T07:20:37;13.00;;;8.43;;
11151;SDS011;5630;49.342;10.802;2022-11-11T07:23:03;8.07;;;6.97;;
11151;SDS011;5630;49.342;10.802;2022-11-11T07:25:29;10.17;;;6.50;;
11151;SDS011;5630;49.342;10.802;2022-11-11T07:27:55;9.47;;;6.23;;
11151;SDS011;5630;49.342;10.802;2022-11-11T07:30:21;6.67;;;5.73;;
11151;SDS011;5630;49.342;10.802;2022-11-11T07:32:48;9.10;;;6.37;;
11151;SDS011;5630;49.342;10.802;2022-11-11T07:35:15;9.83;;;6.30;;
11151;SDS011;5630;49.342;10.802;2022-11-11T07:37:42;9.67;;;5.37;;
11151;SDS011;5630;49.342;10.802;2022-11-11T07:40:08;8.90;;;6.43;;
11151;SDS011;5630;49.342;10.802;2022-11-11T07:42:36;7.50;;;6.00;;
11151;SDS011;5630;49.342;10.802;2022-11-11T07:45:03;11.53;;;6.17;;
11151;SDS011;5630;49.342;10.802;2022-11-11T07:47:29;6.63;;;5.80;;
11151;SDS011;5630;49.342;10.802;2022-11-11T07:49:55;11.47;;;7.80;;
11151;SDS011;5630;49.342;10.802;2022-11-11T07:52:20;9.50;;;6.07;;
11151;SDS011;5630;49.342;10.802;2022-11-11T07:54:47;10.23;;;7.20;;
11151;SDS011;5630;49.342;10.802;2022-11-11T07:57:13;9.33;;;7.60;;
11151;SDS011;5630;49.342;10.802;2022-11-11T07:59:39;9.00;;;7.20;;
11151;SDS011;5630;49.342;10.802;2022-11-11T08:02:07;9.13;;;7.30;;
11151;SDS011;5630;49.342;10.802;2022-11-11T08:04:36;10.93;;;7.13;;
11151;SDS011;5630;49.342;10.802;2022-11-11T08:07:02;9.30;;;8.30;;
11151;SDS011;5630;49.342;10.802;2022-11-11T08:09:27;11.30;;;7.87;;
11151;SDS011;5630;49.342;10.802;2022-11-11T08:11:53;10.77;;;8.30;;
11151;SDS011;5630;49.342;10.802;2022-11-11T08:14:37;15.97;;;11.17;;
11151;SDS011;5630;49.342;10.802;2022-11-11T08:17:02;15.97;;;12.10;;
11151;SDS011;5630;49.342;10.802;2022-11-11T08:19:28;19.03;;;12.43;;
11151;SDS011;5630;49.342;10.802;2022-11-11T08:21:54;18.27;;;13.00;;
11151;SDS011;5630;49.342;10.802;2022-11-11T08:24:19;16.33;;;12.10;;
11151;SDS011;5630;49.342;10.802;2022-11-11T08:26:45;16.87;;;12.03;;
11151;SDS011;5630;49.342;10.802;2022-11-11T08:29:11;14.30;;;10.93;;
11151;SDS011;5630;49.342;10.802;2022-11-11T08:31:37;13.77;;;10.43;;
11151;SDS011;5630;49.342;10.802;2022-11-11T08:34:03;17.50;;;9.70;;
11151;SDS011;5630;49.342;10.802;2022-11-11T08:36:29;12.80;;;8.83;;
11151;SDS011;5630;49.342;10.802;2022-11-11T08:38:54;10.87;;;8.40;;
11151;SDS011;5630;49.342;10.802;2022-11-11T08:41:20;13.50;;;9.30;;
11151;SDS011;5630;49.342;10.802;2022-11-11T08:43:49;10.80;;;9.70;;
11151;SDS011;5630;49.342;10.802;2022-11-11T08:46:17;14.33;;;11.77;;
11151;SDS011;5630;49.342;10.802;2022-11-11T08:48:42;14.70;;;12.13;;
11151;SDS011;5630;49.342;10.802;2022-11-11T08:51:08;14.40;;;11.77;;
11151;SDS011;5630;49.342;10.802;2022-11-11T08:53:34;18.03;;;12.27;;
11151;SDS011;5630;49.342;10.802;2022-11-11T08:56:00;19.17;;;12.77;;
11151;SDS011;5630;49.342;10.802;2022-11-11T08:58:29;16.93;;;13.10;;
11151;SDS011;5630;49.342;10.802;2022-11-11T09:00:54;16.47;;;12.77;;
11151;SDS011;5630;49.342;10.802;2022-11-11T09:03:20;17.23;;;12.40;;
11151;SDS011;5630;49.342;10.802;2022-11-11T09:05:46;15.60;;;12.67;;
11151;SDS011;5630;49.342;10.802;2022-11-11T09:08:12;18.07;;;12.67;;
11151;SDS011;5630;49.342;10.802;2022-11-11T09:10:38;15.33;;;11.60;;
11151;SDS011;5630;49.342;10.802;2022-11-11T09:13:04;14.63;;;11.43;;
11151;SDS011;5630;49.342;10.802;2022-11-11T09:15:30;13.07;;;7.87;;
11151;SDS011;5630;49.342;10.802;2022-11-11T09:17:56;14.70;;;9.47;;
11151;SDS011;5630;49.342;10.802;2022-11-11T09:20:22;14.07;;;11.40;;
11151;SDS011;5630;49.342;10.802;2022-11-11T09:22:48;14.37;;;10.87;;
11151;SDS011;5630;49.342;10.802;2022-11-11T09:25:14;16.03;;;10.77;;
11151;SDS011;5630;49.342;10.802;2022-11-11T09:27:41;12.37;;;9.73;;
11151;SDS011;5630;49.342;10.802;2022-11-11T09:30:07;14.73;;;10.57;;
11151;SDS011;5630;49.342;10.802;2022-11-11T09:32:33;13.80;;;9.27;;
11151;SDS011;5630;49.342;10.802;2022-11-11T09:34:59;14.90;;;8.87;;
11151;SDS011;5630;49.342;10.802;2022-11-11T09:37:25;10.43;;;8.57;;
11151;SDS011;5630;49.342;10.802;2022-11-11T09:39:51;11.57;;;8.93;;
11151;SDS011;5630;49.342;10.802;2022-11-11T09:42:22;10.70;;;8.57;;
11151;SDS011;5630;49.342;10.802;2022-11-11T09:50:46;10.83;;;8.30;;
11151;SDS011;5630;49.342;10.802;2022-11-11T09:53:20;10.43;;;8.00;;
11151;SDS011;5630;49.342;10.802;2022-11-11T09:55:57;10.70;;;8.00;;
11151;SDS011;5630;49.342;10.802;2022-11-11T09:58:40;11.07;;;7.37;;
11151;SDS011;5630;49.342;10.802;2022-11-11T10:01:26;11.83;;;7.47;;
11151;SDS011;5630;49.342;10.802;2022-11-11T10:04:01;8.67;;;6.60;;
11151;SDS011;5630;49.342;10.802;2022-11-11T10:06:34;10.40;;;6.83;;
11151;SDS011;5630;49.342;10.802;2022-11-11T10:11:45;8.20;;;6.50;;
11151;SDS011;5630;49.342;10.802;2022-11-11T10:14:15;7.43;;;6.03;;
11151;SDS011;5630;49.342;10.802;2022-11-11T10:19:29;8.03;;;6.37;;
11151;SDS011;5630;49.342;10.802;2022-11-11T10:24:45;6.87;;;5.63;;
11151;SDS011;5630;49.342;10.802;2022-11-11T10:27:20;7.77;;;5.27;;
11151;SDS011;5630;49.342;10.802;2022-11-11T10:29:46;7.90;;;5.03;;
11151;SDS011;5630;49.342;10.802;2022-11-11T10:32:18;8.03;;;5.10;;
11151;SDS011;5630;49.342;10.802;2022-11-11T10:34:46;7.47;;;4.67;;
11151;SDS011;5630;49.342;10.802;2022-11-11T10:37:19;6.80;;;4.60;;
11151;SDS011;5630;49.342;10.802;2022-11-11T10:42:31;6.50;;;5.23;;
11151;SDS011;5630;49.342;10.802;2022-11-11T10:45:00;6.97;;;5.13;;
11151;SDS011;5630;49.342;10.802;2022-11-11T10:52:40;6.07;;;4.87;;
11151;SDS011;5630;49.342;10.802;2022-11-11T10:55:17;7.07;;;4.73;;
11151;SDS011;5630;49.342;10.802;2022-11-11T10:57:50;9.23;;;5.73;;
11151;SDS011;5630;49.342;10.802;2022-11-11T11:00:21;7.20;;;4.77;;
11151;SDS011;5630;49.342;10.802;2022-11-11T11:02:53;8.73;;;4.80;;
11151;SDS011;5630;49.342;10.802;2022-11-11T11:05:36;5.90;;;4.23;;
11151;SDS011;5630;49.342;10.802;2022-11-11T11:08:07;5.33;;;4.70;;
11151;SDS011;5630;49.342;10.802;2022-11-11T11:10:40;6.43;;;4.70;;
11151;SDS011;5630;49.342;10.802;2022-11-11T11:13:30;8.97;;;5.07;;
11151;SDS011;5630;49.342;10.802;2022-11-11T11:16:13;4.87;;;4.10;;
11151;SDS011;5630;49.342;10.802;2022-11-11T11:18:42;7.30;;;4.30;;
11151;SDS011;5630;49.342;10.802;2022-11-11T11:21:09;7.37;;;4.17;;
11151;SDS011;5630;49.342;10.802;2022-11-11T11:26:00;5.17;;;3.60;;
11151;SDS011;5630;49.342;10.802;2022-11-11T11:28:27;5.30;;;3.53;;
11151;SDS011;5630;49.342;10.802;2022-11-11T11:31:03;5.60;;;4.00;;
11151;SDS011;5630;49.342;10.802;2022-11-11T11:34:15;5.50;;;4.30;;
11151;SDS011;5630;49.342;10.802;2022-11-11T11:36:18;9.70;;;4.57;;
11151;SDS011;5630;49.342;10.802;2022-11-11T11:38:45;7.43;;;4.43;;
11151;SDS011;5630;49.342;10.802;2022-11-11T11:41:14;6.47;;;3.60;;
11151;SDS011;5630;49.342;10.802;2022-11-11T11:43:41;6.10;;;3.67;;
11151;SDS011;5630;49.342;10.802;2022-11-11T11:46:41;6.43;;;3.47;;
11151;SDS011;5630;49.342;10.802;2022-11-11T11:49:18;6.53;;;4.00;;
11151;SDS011;5630;49.342;10.802;2022-11-11T11:51:51;4.73;;;4.10;;
11151;SDS011;5630;49.342;10.802;2022-11-11T11:54:41;7.67;;;4.63;;
11151;SDS011;5630;49.342;10.802;2022-11-11T12:00:11;7.53;;;4.47;;
11151;SDS011;5630;49.342;10.802;2022-11-11T12:02:49;6.03;;;4.23;;
11151;SDS011;5630;49.342;10.802;2022-11-11T12:15:42;7.10;;;4.20;;
11151;SDS011;5630;49.342;10.802;2022-11-11T12:21:39;5.03;;;3.60;;
11151;SDS011;5630;49.342;10.802;2022-11-11T12:24:30;5.23;;;3.60;;
11151;SDS011;5630;49.342;10.802;2022-11-11T12:38:19;5.60;;;3.70;;
11151;SDS011;5630;49.342;10.802;2022-11-11T12:44:03;6.10;;;3.30;;
11151;SDS011;5630;49.342;10.802;2022-11-11T12:52:19;5.17;;;3.77;;
11151;SDS011;5630;49.342;10.802;2022-11-11T12:55:18;8.27;;;4.03;;
11151;SDS011;5630;49.342;10.802;2022-11-11T13:01:05;4.67;;;3.17;;
11151;SDS011;5630;49.342;10.802;2022-11-11T13:03:45;6.20;;;3.60;;
11151;SDS011;5630;49.342;10.802;2022-11-11T13:14:36;5.10;;;3.70;;
11151;SDS011;5630;49.342;10.802;2022-11-11T13:17:11;6.83;;;4.10;;
11151;SDS011;5630;49.342;10.802;2022-11-11T13:19:40;5.47;;;3.43;;
11151;SDS011;5630;49.342;10.802;2022-11-11T13:24:49;5.57;;;3.60;;
11151;SDS011;5630;49.342;10.802;2022-11-11T13:27:59;4.70;;;3.17;;
11151;SDS011;5630;49.342;10.802;2022-11-11T13:30:21;5.80;;;3.30;;
11151;SDS011;5630;49.342;10.802;2022-11-11T13:33:04;4.10;;;2.80;;
11151;SDS011;5630;49.342;10.802;2022-11-11T13:38:04;4.97;;;3.00;;
11151;SDS011;5630;49.342;10.802;2022-11-11T13:40:41;4.63;;;2.77;;
11151;SDS011;5630;49.342;10.802;2022-11-11T13:43:17;4.27;;;2.83;;
11151;SDS011;5630;49.342;10.802;2022-11-11T13:45:50;7.87;;;3.30;;
11151;SDS011;5630;49.342;10.802;2022-11-11T13:51:18;7.07;;;3.30;;
11151;SDS011;5630;49.342;10.802;2022-11-11T13:53:48;5.23;;;2.73;;
11151;SDS011;5630;49.342;10.802;2022-11-11T13:58:51;5.40;;;2.87;;
11151;SDS011;5630;49.342;10.802;2022-11-11T14:01:18;6.57;;;2.90;;
11151;SDS011;5630;49.342;10.802;2022-11-11T14:13:50;3.87;;;2.77;;
11151;SDS011;5630;49.342;10.802;2022-11-11T14:21:45;7.50;;;3.43;;
11151;SDS011;5630;49.342;10.802;2022-11-11T14:24:25;4.83;;;2.90;;
11151;SDS011;5630;49.342;10.802;2022-11-11T14:29:33;5.67;;;2.67;;
11151;SDS011;5630;49.342;10.802;2022-11-11T14:38:19;5.47;;;3.23;;
11151;SDS011;5630;49.342;10.802;2022-11-11T14:40:46;6.27;;;3.30;;
11151;SDS011;5630;49.342;10.802;2022-11-11T14:43:45;5.77;;;3.13;;
11151;SDS011;5630;49.342;10.802;2022-11-11T14:51:42;7.67;;;3.50;;
11151;SDS011;5630;49.342;10.802;2022-11-11T14:54:15;5.20;;;3.63;;
11151;SDS011;5630;49.342;10.802;2022-11-11T14:56:52;5.60;;;3.50;;
11151;SDS011;5630;49.342;10.802;2022-11-11T14:59:30;6.13;;;3.40;;
11151;SDS011;5630;49.342;10.802;2022-11-11T15:01:57;7.53;;;3.47;;
11151;SDS011;5630;49.342;10.802;2022-11-11T15:04:24;5.77;;;3.40;;
11151;SDS011;5630;49.342;10.802;2022-11-11T15:06:58;5.37;;;3.80;;
11151;SDS011;5630;49.342;10.802;2022-11-11T15:12:11;5.17;;;3.77;;
11151;SDS011;5630;49.342;10.802;2022-11-11T15:17:27;6.07;;;3.40;;
11151;SDS011;5630;49.342;10.802;2022-11-11T15:20:30;7.23;;;4.00;;
11151;SDS011;5630;49.342;10.802;2022-11-11T15:23:29;5.20;;;3.77;;
11151;SDS011;5630;49.342;10.802;2022-11-11T15:26:19;6.47;;;3.97;;
11151;SDS011;5630;49.342;10.802;2022-11-11T15:31:59;5.67;;;3.63;;
11151;SDS011;5630;49.342;10.802;2022-11-11T15:34:49;6.37;;;3.97;;
11151;SDS011;5630;49.342;10.802;2022-11-11T15:37:29;7.43;;;4.17;;
11151;SDS011;5630;49.342;10.802;2022-11-11T15:39:55;7.37;;;4.70;;
11151;SDS011;5630;49.342;10.802;2022-11-11T15:42:34;7.00;;;4.37;;
11151;SDS011;5630;49.342;10.802;2022-11-11T15:45:07;6.27;;;4.20;;
11151;SDS011;5630;49.342;10.802;2022-11-11T15:47:38;7.80;;;4.20;;
11151;SDS011;5630;49.342;10.802;2022-11-11T15:50:13;5.53;;;4.43;;
11151;SDS011;5630;49.342;10.802;2022-11-11T15:52:41;7.40;;;4.43;;
11151;SDS011;5630;49.342;10.802;2022-11-11T15:55:26;6.40;;;4.70;;
11151;SDS011;5630;49.342;10.802;2022-11-11T15:58:16;6.63;;;4.83;;
11151;SDS011;5630;49.342;10.802;2022-11-11T16:00:49;8.17;;;4.50;;
11151;SDS011;5630;49.342;10.802;2022-11-11T16:03:24;3.27;;;2.47;;
11151;SDS011;5630;49.342;10.802;2022-11-11T16:05:55;5.80;;;4.03;;
11151;SDS011;5630;49.342;10.802;2022-11-11T16:08:21;6.53;;;4.43;;
11151;SDS011;5630;49.342;10.802;2022-11-11T16:10:51;5.37;;;4.13;;
11151;SDS011;5630;49.342;10.802;2022-11-11T16:13:21;5.53;;;4.30;;
11151;SDS011;5630;49.342;10.802;2022-11-11T16:15:58;7.60;;;4.43;;
11151;SDS011;5630;49.342;10.802;2022-11-11T16:18:33;6.17;;;4.60;;
11151;SDS011;5630;49.342;10.802;2022-11-11T16:21:15;8.60;;;4.80;;
11151;SDS011;5630;49.342;10.802;2022-11-11T16:23:42;5.40;;;4.00;;
11151;SDS011;5630;49.342;10.802;2022-11-11T16:26:08;8.33;;;5.00;;
11151;SDS011;5630;49.342;10.802;2022-11-11T16:28:39;10.37;;;4.37;;
11151;SDS011;5630;49.342;10.802;2022-11-11T16:33:50;6.67;;;4.97;;
11151;SDS011;5630;49.342;10.802;2022-11-11T16:36:16;8.50;;;5.33;;
11151;SDS011;5630;49.342;10.802;2022-11-11T16:38:41;7.77;;;5.90;;
11151;SDS011;5630;49.342;10.802;2022-11-11T16:41:24;8.57;;;6.00;;
11151;SDS011;5630;49.342;10.802;2022-11-11T16:43:52;9.37;;;6.83;;
11151;SDS011;5630;49.342;10.802;2022-11-11T16:46:51;9.80;;;8.57;;
11151;SDS011;5630;49.342;10.802;2022-11-11T16:49:14;14.83;;;9.50;;
11151;SDS011;5630;49.342;10.802;2022-11-11T16:51:42;10.83;;;9.03;;
11151;SDS011;5630;49.342;10.802;2022-11-11T16:56:35;10.40;;;7.43;;
11151;SDS011;5630;49.342;10.802;2022-11-11T16:59:06;11.33;;;7.40;;
11151;SDS011;5630;49.342;10.802;2022-11-11T17:01:41;7.50;;;6.23;;
11151;SDS011;5630;49.342;10.802;2022-11-11T17:04:08;6.43;;;5.67;;
11151;SDS011;5630;49.342;10.802;2022-11-11T17:06:44;7.07;;;5.50;;
11151;SDS011;5630;49.342;10.802;2022-11-11T17:09:26;6.50;;;5.30;;
11151;SDS011;5630;49.342;10.802;2022-11-11T17:11:54;7.53;;;5.13;;
11151;SDS011;5630;49.342;10.802;2022-11-11T17:14:20;9.43;;;5.90;;
11151;SDS011;5630;49.342;10.802;2022-11-11T17:16:46;6.23;;;5.40;;
11151;SDS011;5630;49.342;10.802;2022-11-11T17:19:12;6.43;;;5.23;;
11151;SDS011;5630;49.342;10.802;2022-11-11T17:21:37;8.30;;;4.80;;